createdAt,value
2023-05-05T00:01:43.933Z,74.3
2023-05-05T00:02:48.585Z,74.4
2023-05-05T00:03:52.552Z,74.4
2023-05-05T00:04:58.890Z,74.4
2023-05-05T00:06:00.113Z,74.4
2023-05-05T00:07:03.931Z,74.4
2023-05-05T00:08:05.141Z,74.4
2023-05-05T00:09:16.155Z,74.4
2023-05-05T00:10:17.312Z,74.4
2023-05-05T00:11:18.621Z,74.4
2023-05-05T00:12:22.807Z,74.4
2023-05-05T00:13:26.192Z,74.5
2023-05-05T00:14:30.342Z,74.5
2023-05-05T00:15:34.348Z,74.5
2023-05-05T00:16:37.906Z,74.5
2023-05-05T00:17:45.111Z,74.5
2023-05-05T00:18:46.306Z,74.5
2023-05-05T00:19:50.384Z,74.5
2023-05-05T00:20:51.583Z,74.5
2023-05-05T00:21:52.793Z,74.6
2023-05-05T00:22:53.974Z,74.5
2023-05-05T00:24:00.212Z,74.5
2023-05-05T00:25:01.445Z,74.6
2023-05-05T00:26:22.848Z,74.6
2023-05-05T00:27:29.096Z,74.6
2023-05-05T00:28:33.374Z,74.6
2023-05-05T00:30:46.853Z,74.6
2023-05-05T00:31:48.027Z,74.6
2023-05-05T00:32:55.046Z,74.6
2023-05-05T00:33:56.302Z,74.6
2023-05-05T00:35:18.023Z,74.6
2023-05-05T00:36:19.290Z,74.7
2023-05-05T00:37:23.574Z,74.7
2023-05-05T00:38:24.747Z,74.7
2023-05-05T00:39:25.903Z,74.7
2023-05-05T00:40:30.143Z,74.7
2023-05-05T00:41:45.813Z,74.7
2023-05-05T00:42:52.742Z,74.8
2023-05-05T00:43:56.744Z,74.8
2023-05-05T00:45:00.664Z,74.7
2023-05-05T00:46:01.894Z,74.8
2023-05-05T00:47:06.031Z,74.8
2023-05-05T00:48:13.236Z,74.8
2023-05-05T00:49:14.508Z,74.8
2023-05-05T00:50:21.030Z,74.8
2023-05-05T00:51:24.347Z,74.8
2023-05-05T00:52:25.494Z,74.8
2023-05-05T00:53:28.878Z,74.8
2023-05-05T00:54:32.758Z,74.8
2023-05-05T00:55:50.774Z,74.8
2023-05-05T00:56:54.143Z,74.9
2023-05-05T00:57:55.413Z,74.9
2023-05-05T00:58:56.545Z,74.9
2023-05-05T01:00:00.827Z,74.9
2023-05-05T01:01:02.055Z,74.9
2023-05-05T01:02:03.473Z,74.9
2023-05-05T01:03:16.077Z,74.9
2023-05-05T01:04:17.298Z,75
2023-05-05T01:05:18.483Z,75
2023-05-05T01:06:24.509Z,75
2023-05-05T01:07:28.038Z,75
2023-05-05T01:08:34.672Z,75
2023-05-05T01:09:41.120Z,75
2023-05-05T01:10:42.295Z,75
2023-05-05T01:11:48.714Z,75
2023-05-05T01:12:50.070Z,75
2023-05-05T01:13:53.812Z,75
2023-05-05T01:14:59.985Z,75.1
2023-05-05T01:16:06.018Z,75.1
2023-05-05T01:17:10.096Z,75.1
2023-05-05T01:18:14.315Z,75.1
2023-05-05T01:19:15.495Z,75.1
2023-05-05T01:20:16.672Z,75.1
2023-05-05T01:21:20.668Z,75.1
2023-05-05T01:22:32.000Z,75.1
2023-05-05T01:23:35.612Z,75.1
2023-05-05T01:24:53.093Z,75.2
2023-05-05T01:25:54.259Z,75.2
2023-05-05T01:27:02.498Z,75.2
2023-05-05T01:28:03.637Z,75.3
2023-05-05T01:29:07.582Z,75.3
2023-05-05T01:30:31.805Z,75.3
2023-05-05T01:31:38.239Z,75.4
2023-05-05T01:32:39.539Z,75.4
2023-05-05T01:33:42.929Z,75.4
2023-05-05T01:34:44.136Z,75.4
2023-05-05T01:35:50.993Z,75.4
2023-05-05T01:36:52.167Z,75.4
2023-05-05T01:37:56.689Z,75.4
2023-05-05T01:38:57.916Z,75.4
2023-05-05T01:40:04.095Z,75.5
2023-05-05T01:41:05.319Z,75.5
2023-05-05T01:42:06.512Z,75.5
2023-05-05T01:43:10.336Z,75.5
2023-05-05T01:44:14.615Z,75.5
2023-05-05T01:45:23.137Z,75.5
2023-05-05T01:46:26.976Z,75.5
2023-05-05T01:47:28.201Z,75.5
2023-05-05T01:48:29.404Z,75.5
2023-05-05T01:49:31.678Z,75.6
2023-05-05T01:50:32.853Z,75.6
2023-05-05T01:51:33.991Z,75.6
2023-05-05T01:52:35.146Z,75.6
2023-05-05T01:53:36.316Z,75.6
2023-05-05T01:54:37.479Z,75.6
2023-05-05T01:55:38.645Z,75.6
2023-05-05T01:56:39.805Z,75.7
2023-05-05T01:57:40.972Z,75.7
2023-05-05T01:58:42.139Z,75.7
2023-05-05T01:59:43.304Z,75.7
2023-05-05T02:00:44.529Z,75.7
2023-05-05T02:01:45.964Z,75.7
2023-05-05T02:02:47.646Z,75.8
2023-05-05T02:03:48.982Z,75.8
2023-05-05T02:04:50.149Z,75.8
2023-05-05T02:05:51.341Z,75.8
2023-05-05T02:06:52.482Z,75.8
2023-05-05T02:07:53.648Z,75.8
2023-05-05T02:08:54.813Z,75.8
2023-05-05T02:09:55.980Z,75.9
2023-05-05T02:10:57.165Z,75.9
2023-05-05T02:11:58.314Z,75.9
2023-05-05T02:12:59.547Z,75.9
2023-05-05T02:14:00.833Z,75.9
2023-05-05T02:15:02.005Z,76
2023-05-05T02:16:03.342Z,76
2023-05-05T02:17:04.495Z,76
2023-05-05T02:18:05.746Z,76
2023-05-05T02:19:06.892Z,76.1
2023-05-05T02:20:08.953Z,76.1
2023-05-05T02:21:10.225Z,76.1
2023-05-05T02:22:11.373Z,76.1
2023-05-05T02:23:12.537Z,76.2
2023-05-05T02:24:16.764Z,76.2
2023-05-05T02:25:17.943Z,76.2
2023-05-05T02:26:19.107Z,76.2
2023-05-05T02:27:20.286Z,76.2
2023-05-05T02:28:21.448Z,76.3
2023-05-05T02:29:22.605Z,76.3
2023-05-05T02:30:23.771Z,76.3
2023-05-05T02:31:25.000Z,76.3
2023-05-05T02:32:26.161Z,76.3
2023-05-05T02:33:27.304Z,76.3
2023-05-05T02:34:28.481Z,76.3
2023-05-05T02:35:29.644Z,76.3
2023-05-05T02:36:30.840Z,76.4
2023-05-05T02:37:32.082Z,76.4
2023-05-05T02:38:33.266Z,76.4
2023-05-05T02:39:34.423Z,76.4
2023-05-05T02:40:35.586Z,76.4
2023-05-05T02:41:36.754Z,76.4
2023-05-05T02:42:37.957Z,76.4
2023-05-05T02:43:39.130Z,76.4
2023-05-05T02:44:40.303Z,76.4
2023-05-05T02:45:46.442Z,76.4
2023-05-05T02:46:47.942Z,76.4
2023-05-05T02:47:49.237Z,76.5
2023-05-05T02:48:50.385Z,76.5
2023-05-05T02:49:51.545Z,76.5
2023-05-05T02:50:52.709Z,76.5
2023-05-05T02:51:53.903Z,76.5
2023-05-05T02:52:55.050Z,76.5
2023-05-05T02:53:56.209Z,76.5
2023-05-05T02:54:57.374Z,76.5
2023-05-05T02:55:58.570Z,76.5
2023-05-05T02:56:59.705Z,76.6
2023-05-05T02:58:00.935Z,76.6
2023-05-05T02:59:02.101Z,76.6
2023-05-05T03:00:03.278Z,76.6
2023-05-05T03:01:04.668Z,76.6
2023-05-05T03:02:05.820Z,76.7
2023-05-05T03:03:07.235Z,76.7
2023-05-05T03:04:08.467Z,76.7
2023-05-05T03:05:09.722Z,76.7
2023-05-05T03:06:10.883Z,76.7
2023-05-05T03:07:12.074Z,76.8
2023-05-05T03:08:13.217Z,76.8
2023-05-05T03:09:14.378Z,76.8
2023-05-05T03:10:15.552Z,76.8
2023-05-05T03:11:16.717Z,76.8
2023-05-05T03:12:17.882Z,76.9
2023-05-05T03:13:19.050Z,76.9
2023-05-05T03:14:20.213Z,76.9
2023-05-05T03:15:21.388Z,76.9
2023-05-05T03:16:22.555Z,76.9
2023-05-05T03:17:23.825Z,76.9
2023-05-05T03:18:24.964Z,76.9
2023-05-05T03:19:26.128Z,77
2023-05-05T03:20:27.333Z,77
2023-05-05T03:21:31.295Z,77
2023-05-05T03:22:32.489Z,77.1
2023-05-05T03:23:33.628Z,77.1
2023-05-05T03:24:34.794Z,77.1
2023-05-05T03:25:35.957Z,77.1
2023-05-05T03:26:37.124Z,77.1
2023-05-05T03:27:38.292Z,77.1
2023-05-05T03:28:39.452Z,77.2
2023-05-05T03:29:40.619Z,77.2
2023-05-05T03:30:41.806Z,77.2
2023-05-05T03:31:43.027Z,77.2
2023-05-05T03:32:44.218Z,77.2
2023-05-05T03:33:45.374Z,77.2
2023-05-05T03:34:46.544Z,77.2
2023-05-05T03:35:47.705Z,77.2
2023-05-05T03:36:48.875Z,77.2
2023-05-05T03:37:50.095Z,77.3
2023-05-05T03:38:51.238Z,77.3
2023-05-05T03:39:52.397Z,77.3
2023-05-05T03:40:53.565Z,77.3
2023-05-05T03:41:54.733Z,77.3
2023-05-05T03:42:55.901Z,77.3
2023-05-05T03:43:57.057Z,77.3
2023-05-05T03:44:58.220Z,77.3
2023-05-05T03:45:59.492Z,77.3
2023-05-05T03:47:00.650Z,77.3
2023-05-05T03:48:01.887Z,77.3
2023-05-05T03:49:03.063Z,77.3
2023-05-05T03:50:04.237Z,77.3
2023-05-05T03:51:05.404Z,77.3
2023-05-05T03:52:06.566Z,77.3
2023-05-05T03:53:07.777Z,77.3
2023-05-05T03:54:08.929Z,77.3
2023-05-05T03:55:10.094Z,77.3
2023-05-05T03:56:11.264Z,77.3
2023-05-05T03:57:12.425Z,77.3
2023-05-05T03:58:13.602Z,77.4
2023-05-05T03:59:14.762Z,77.4
2023-05-05T04:00:15.945Z,77.4
2023-05-05T04:01:17.094Z,77.4
2023-05-05T04:02:20.138Z,77.4
2023-05-05T04:03:22.093Z,77.4
2023-05-05T04:04:23.541Z,77.5
2023-05-05T04:05:24.701Z,77.5
2023-05-05T04:06:25.869Z,77.5
2023-05-05T04:07:27.033Z,77.5
2023-05-05T04:08:28.255Z,77.5
2023-05-05T04:09:29.405Z,77.5
2023-05-05T04:10:30.571Z,77.5
2023-05-05T04:11:31.738Z,77.5
2023-05-05T04:12:33.033Z,77.4
2023-05-05T04:13:34.189Z,77.4
2023-05-05T04:14:35.351Z,77.5
2023-05-05T04:15:36.696Z,77.4
2023-05-05T04:16:37.855Z,77.5
2023-05-05T04:17:39.073Z,77.5
2023-05-05T04:18:40.217Z,77.5
2023-05-05T04:19:41.438Z,77.5
2023-05-05T04:20:42.563Z,77.5
2023-05-05T04:21:43.734Z,77.5
2023-05-05T04:22:44.896Z,77.5
2023-05-05T04:23:46.090Z,77.5
2023-05-05T04:24:47.237Z,77.5
2023-05-05T04:25:48.396Z,77.5
2023-05-05T04:26:49.561Z,77.5
2023-05-05T04:27:50.732Z,77.5
2023-05-05T04:28:51.898Z,77.5
2023-05-05T04:29:53.057Z,77.5
2023-05-05T04:30:54.306Z,77.5
2023-05-05T04:31:55.491Z,77.5
2023-05-05T04:32:56.725Z,77.5
2023-05-05T04:33:57.936Z,77.5
2023-05-05T04:34:59.065Z,77.5
2023-05-05T04:36:00.231Z,77.5
2023-05-05T04:37:01.415Z,77.5
2023-05-05T04:38:02.561Z,77.5
2023-05-05T04:39:04.032Z,77.5
2023-05-05T04:40:05.236Z,77.5
2023-05-05T04:41:06.415Z,77.5
2023-05-05T04:42:07.559Z,77.5
2023-05-05T04:43:08.725Z,77.5
2023-05-05T04:44:09.917Z,77.5
2023-05-05T04:45:11.060Z,77.6
2023-05-05T04:46:12.259Z,77.5
2023-05-05T04:47:15.532Z,77.5
2023-05-05T04:48:16.696Z,77.6
2023-05-05T04:49:17.860Z,77.6
2023-05-05T04:50:19.029Z,77.5
2023-05-05T04:51:20.197Z,77.6
2023-05-05T04:52:21.361Z,77.6
2023-05-05T04:53:22.529Z,77.6
2023-05-05T04:54:26.531Z,77.6
2023-05-05T04:55:27.664Z,77.6
2023-05-05T04:56:28.828Z,77.6
2023-05-05T04:57:30.010Z,77.6
2023-05-05T04:58:31.165Z,77.6
2023-05-05T04:59:32.320Z,77.6
2023-05-05T05:00:33.490Z,77.6
2023-05-05T05:01:38.902Z,77.6
2023-05-05T05:02:40.230Z,77.6
2023-05-05T05:03:44.739Z,77.6
2023-05-05T05:04:45.914Z,77.6
2023-05-05T05:05:47.079Z,77.6
2023-05-05T05:06:48.632Z,77.6
2023-05-05T05:07:49.854Z,77.6
2023-05-05T05:08:51.007Z,77.6
2023-05-05T05:09:52.205Z,77.6
2023-05-05T05:10:53.350Z,77.6
2023-05-05T05:11:54.514Z,77.6
2023-05-05T05:12:55.734Z,77.6
2023-05-05T05:13:56.873Z,77.5
2023-05-05T05:14:58.036Z,77.5
2023-05-05T05:15:59.246Z,77.6
2023-05-05T05:17:00.406Z,77.6
2023-05-05T05:18:01.699Z,77.5
2023-05-05T05:19:03.004Z,77.6
2023-05-05T05:20:06.916Z,77.6
2023-05-05T05:21:08.208Z,77.6
2023-05-05T05:22:09.396Z,77.6
2023-05-05T05:23:10.552Z,77.6
2023-05-05T05:24:11.707Z,77.6
2023-05-05T05:25:12.921Z,77.6
2023-05-05T05:26:14.079Z,77.6
2023-05-05T05:27:15.261Z,77.5
2023-05-05T05:28:16.438Z,77.6
2023-05-05T05:29:17.610Z,77.6
2023-05-05T05:30:18.773Z,77.6
2023-05-05T05:31:22.911Z,77.6
2023-05-05T05:32:24.170Z,77.6
2023-05-05T05:33:25.338Z,77.6
2023-05-05T05:34:26.501Z,77.5
2023-05-05T05:35:27.972Z,77.5
2023-05-05T05:36:31.917Z,77.5
2023-05-05T05:37:33.097Z,77.5
2023-05-05T05:38:34.262Z,77.5
2023-05-05T05:39:35.433Z,77.6
2023-05-05T05:40:36.624Z,77.6
2023-05-05T05:41:37.779Z,77.6
2023-05-05T05:42:38.934Z,77.6
2023-05-05T05:43:40.103Z,77.7
2023-05-05T05:44:41.267Z,77.7
2023-05-05T05:45:42.498Z,77.6
2023-05-05T05:46:43.906Z,77.6
2023-05-05T05:47:45.127Z,77.6
2023-05-05T05:48:46.278Z,77.6
2023-05-05T05:49:47.446Z,77.6
2023-05-05T05:50:48.619Z,77.6
2023-05-05T05:51:49.769Z,77.6
2023-05-05T05:52:50.949Z,77.5
2023-05-05T05:53:52.118Z,77.5
2023-05-05T05:54:53.270Z,77.5
2023-05-05T05:55:54.467Z,77.5
2023-05-05T05:56:55.637Z,77.5
2023-05-05T05:57:56.771Z,77.5
2023-05-05T05:58:57.948Z,77.5
2023-05-05T06:00:02.981Z,77.5
2023-05-05T06:01:04.147Z,77.5
2023-05-05T06:02:05.422Z,77.5
2023-05-05T06:03:07.150Z,77.5
2023-05-05T06:04:08.807Z,77.5
2023-05-05T06:05:09.992Z,77.6
2023-05-05T06:06:11.159Z,77.5
2023-05-05T06:07:12.647Z,77.5
2023-05-05T06:08:13.811Z,77.5
2023-05-05T06:09:14.975Z,77.5
2023-05-05T06:10:29.095Z,77.5
2023-05-05T06:11:30.394Z,77.5
2023-05-05T06:12:31.657Z,77.6
2023-05-05T06:13:32.820Z,77.8
2023-05-05T06:14:33.992Z,78
2023-05-05T06:15:35.261Z,78.1
2023-05-05T06:16:36.550Z,78.2
2023-05-05T06:17:37.821Z,78.3
2023-05-05T06:18:38.982Z,78.4
2023-05-05T06:19:40.144Z,78.5
2023-05-05T06:20:41.313Z,78.6
2023-05-05T06:21:42.491Z,78.6
2023-05-05T06:22:43.645Z,78.7
2023-05-05T06:23:44.808Z,78.8
2023-05-05T06:24:45.979Z,78.8
2023-05-05T06:25:47.143Z,78.9
2023-05-05T06:26:48.338Z,78.9
2023-05-05T06:27:49.500Z,78.9
2023-05-05T06:28:50.644Z,78.9
2023-05-05T06:29:51.815Z,78.8
2023-05-05T06:30:52.978Z,78.8
2023-05-05T06:31:54.605Z,78.7
2023-05-05T06:32:55.816Z,78.7
2023-05-05T06:33:56.968Z,78.7
2023-05-05T06:34:58.134Z,78.6
2023-05-05T06:36:01.989Z,78.6
2023-05-05T06:37:05.945Z,78.5
2023-05-05T06:38:07.110Z,78.5
2023-05-05T06:39:08.311Z,78.5
2023-05-05T06:40:10.161Z,78.4
2023-05-05T06:41:11.435Z,78.3
2023-05-05T06:42:12.632Z,78.3
2023-05-05T06:43:13.776Z,78.2
2023-05-05T06:44:14.943Z,78.1
2023-05-05T06:45:16.113Z,78
2023-05-05T06:46:17.763Z,78
2023-05-05T06:47:19.015Z,77.9
2023-05-05T06:48:20.156Z,77.9
2023-05-05T06:49:21.350Z,77.9
2023-05-05T06:50:22.493Z,77.9
2023-05-05T06:51:23.660Z,77.9
2023-05-05T06:52:24.828Z,77.8
2023-05-05T06:53:25.996Z,77.8
2023-05-05T06:54:27.162Z,77.8
2023-05-05T06:55:28.339Z,77.7
2023-05-05T06:56:29.494Z,77.7
2023-05-05T06:57:31.053Z,77.6
2023-05-05T06:58:32.185Z,77.6
2023-05-05T06:59:33.400Z,77.5
2023-05-05T07:00:34.625Z,77.5
2023-05-05T07:01:35.787Z,77.5
2023-05-05T07:02:36.965Z,77.4
2023-05-05T07:03:38.156Z,77.2
2023-05-05T07:04:39.348Z,77
2023-05-05T07:05:40.528Z,76.8
2023-05-05T07:06:41.690Z,76.7
2023-05-05T07:07:43.080Z,76.7
2023-05-05T07:08:44.265Z,76.6
2023-05-05T07:09:45.414Z,76.7
2023-05-05T07:10:46.585Z,76.9
2023-05-05T07:11:47.758Z,77.2
2023-05-05T07:12:49.418Z,77.4
2023-05-05T07:13:50.980Z,77.5
2023-05-05T07:14:52.146Z,77.6
2023-05-05T07:15:53.310Z,77.3
2023-05-05T07:16:57.709Z,77
2023-05-05T07:17:59.793Z,76.8
2023-05-05T07:19:01.161Z,76.7
2023-05-05T07:20:02.384Z,76.6
2023-05-05T07:21:03.511Z,76.4
2023-05-05T07:22:04.684Z,76.4
2023-05-05T07:23:06.064Z,76.3
2023-05-05T07:24:07.212Z,76.2
2023-05-05T07:25:08.436Z,76.1
2023-05-05T07:26:09.603Z,75.9
2023-05-05T07:27:10.753Z,75.8
2023-05-05T07:28:12.278Z,75.7
2023-05-05T07:29:16.258Z,75.6
2023-05-05T07:30:20.960Z,75.4
2023-05-05T07:31:22.454Z,75.8
2023-05-05T07:32:23.848Z,76.2
2023-05-05T07:33:25.046Z,75.7
2023-05-05T07:34:26.203Z,75.3
2023-05-05T07:35:27.462Z,74.9
2023-05-05T07:36:28.624Z,74.5
2023-05-05T07:37:29.821Z,74.2
2023-05-05T07:38:31.048Z,73.8
2023-05-05T07:39:37.944Z,73.6
2023-05-05T07:40:42.054Z,73.2
2023-05-05T07:41:43.240Z,72.7
2023-05-05T07:42:44.405Z,72.1
2023-05-05T07:43:45.944Z,71.7
2023-05-05T08:23:22.759Z,70.9
2023-05-05T09:04:19.120Z,48.8
2023-05-05T09:05:33.118Z,48.7
2023-05-05T09:06:47.488Z,48.3
2023-05-05T09:07:56.342Z,47.9
2023-05-05T09:09:23.262Z,47.5
2023-05-05T09:11:55.181Z,47.3
2023-05-05T09:13:01.708Z,47
2023-05-05T09:15:34.130Z,46.4
2023-05-05T09:16:44.445Z,46.1
2023-05-05T09:17:48.388Z,45.8
2023-05-05T09:19:02.657Z,45.3
2023-05-05T09:20:31.506Z,45.3
2023-05-05T09:22:40.404Z,44.9
2023-05-05T09:23:53.764Z,45.2
2023-05-05T09:25:11.191Z,44.7
2023-05-05T09:27:06.949Z,44.6
2023-05-05T09:29:23.615Z,44.1
2023-05-05T09:31:44.201Z,43.6
2023-05-05T09:32:51.016Z,43.2
2023-05-05T09:34:02.795Z,42.9
2023-05-05T09:36:59.009Z,42.8
2023-05-05T09:38:28.641Z,42.3
2023-05-05T09:40:55.543Z,41.7
2023-05-05T09:44:15.831Z,41.2
2023-05-05T09:47:18.422Z,41.4
2023-05-05T09:49:22.913Z,40.9
2023-05-05T09:51:49.537Z,40.5
2023-05-05T09:52:58.938Z,40.1
2023-05-05T09:54:28.650Z,40
2023-05-05T09:55:50.581Z,39.8
2023-05-05T09:57:23.553Z,40.1
2023-05-05T09:58:32.974Z,39.8
2023-05-05T10:00:00.480Z,39.7
2023-05-05T10:01:10.825Z,39.3
2023-05-05T10:03:29.368Z,38.6
2023-05-05T10:04:35.671Z,38.7
2023-05-05T10:06:32.621Z,38.6
2023-05-05T10:09:04.994Z,38.1
2023-05-05T10:10:55.430Z,37.7
2023-05-05T10:12:10.561Z,37.5
2023-05-05T10:55:22.184Z,37.5
2023-05-05T10:57:34.202Z,37.4
2023-05-05T10:59:02.725Z,37.4
2023-05-05T11:00:12.929Z,37.5
2023-05-05T11:01:20.972Z,37.6
2023-05-05T11:02:27.428Z,37.7
2023-05-05T11:03:50.545Z,37.8
2023-05-05T11:04:51.885Z,37.9
2023-05-05T11:07:01.627Z,38.1
2023-05-05T11:08:25.703Z,38.1
2023-05-05T11:09:29.764Z,38.3
2023-05-05T11:10:33.456Z,38.4
2023-05-05T11:11:55.794Z,38.5
2023-05-05T11:12:59.336Z,38.7
2023-05-05T11:14:03.414Z,38.8
2023-05-05T11:15:07.158Z,38.9
2023-05-05T11:16:11.483Z,39.1
2023-05-05T11:17:18.184Z,39.2
2023-05-05T11:18:22.352Z,39.4
2023-05-05T11:20:32.513Z,39.7
2023-05-05T11:21:36.497Z,39.8
2023-05-05T11:22:40.616Z,39.9
2023-05-05T11:23:44.778Z,39.9
2023-05-05T11:24:54.173Z,40
2023-05-05T11:25:55.463Z,40.1
2023-05-05T11:26:56.634Z,40.2
2023-05-05T11:28:00.584Z,40.4
2023-05-05T11:29:07.443Z,40.5
2023-05-05T11:30:12.371Z,40.7
2023-05-05T11:31:13.971Z,40.8
2023-05-05T11:32:15.118Z,40.9
2023-05-05T11:33:16.327Z,41
2023-05-05T11:34:28.909Z,41.1
2023-05-05T11:35:30.050Z,41.2
2023-05-05T11:36:31.226Z,41.3
2023-05-05T11:37:32.387Z,41.5
2023-05-05T11:38:33.674Z,41.6
2023-05-05T11:39:55.291Z,41.8
2023-05-05T11:40:56.500Z,42
2023-05-05T11:41:57.669Z,42
2023-05-05T11:42:58.814Z,42.1
2023-05-05T11:43:59.980Z,42.1
2023-05-05T11:45:01.201Z,42.1
2023-05-05T11:46:02.439Z,42
2023-05-05T11:47:03.582Z,42.1
2023-05-05T11:48:04.827Z,42.1
2023-05-05T11:49:05.969Z,42.1
2023-05-05T11:50:08.128Z,42.1
2023-05-05T11:51:09.532Z,42.1
2023-05-05T11:52:10.706Z,42.3
2023-05-05T11:53:11.866Z,42.4
2023-05-05T11:54:13.045Z,42.5
2023-05-05T11:55:14.367Z,42.7
2023-05-05T11:56:15.620Z,42.9
2023-05-05T11:57:16.864Z,43.1
2023-05-05T11:58:17.991Z,43.3
2023-05-05T11:59:19.157Z,43.4
2023-05-05T12:00:20.340Z,43.5
2023-05-05T12:01:21.506Z,43.6
2023-05-05T12:02:22.724Z,43.6
2023-05-05T12:03:24.297Z,43.7
2023-05-05T12:04:25.677Z,43.9
2023-05-05T12:05:26.938Z,44.1
2023-05-05T12:06:28.093Z,44.4
2023-05-05T12:07:29.232Z,44.6
2023-05-05T12:08:30.397Z,44.8
2023-05-05T12:09:32.156Z,45.1
2023-05-05T12:10:33.283Z,45.3
2023-05-05T12:11:34.881Z,45.6
2023-05-05T12:12:36.328Z,45.8
2023-05-05T12:13:37.883Z,46.1
2023-05-05T12:14:39.420Z,46.4
2023-05-05T12:15:40.689Z,46.6
2023-05-05T12:16:42.323Z,46.9
2023-05-05T12:17:43.963Z,47.2
2023-05-05T12:18:45.104Z,47.4
2023-05-05T12:19:46.263Z,47.7
2023-05-05T12:20:47.432Z,48
2023-05-05T12:21:48.665Z,48.3
2023-05-05T12:22:49.843Z,48.6
2023-05-05T12:23:51.126Z,48.9
2023-05-05T12:24:55.509Z,49.2
2023-05-05T12:25:56.777Z,49.5
2023-05-05T12:26:58.043Z,49.7
2023-05-05T12:27:59.273Z,50
2023-05-05T12:29:00.517Z,50.3
2023-05-05T12:30:01.654Z,50.5
2023-05-05T12:31:02.868Z,50.8
2023-05-05T12:32:04.232Z,51
2023-05-05T12:33:05.916Z,51.3
2023-05-05T12:34:07.145Z,51.5
2023-05-05T12:35:11.242Z,51.7
2023-05-05T12:36:12.415Z,52
2023-05-05T12:37:13.575Z,52.2
2023-05-05T12:38:14.740Z,52.3
2023-05-05T12:39:16.047Z,52.5
2023-05-05T12:40:17.236Z,52.6
2023-05-05T12:41:18.499Z,52.6
2023-05-05T12:42:19.707Z,52.7
2023-05-05T12:43:22.380Z,52.6
2023-05-05T12:44:23.555Z,52.6
2023-05-05T12:45:24.922Z,52.5
2023-05-05T12:46:26.417Z,52.4
2023-05-05T12:47:31.055Z,52.2
2023-05-05T12:48:32.218Z,52.1
2023-05-05T12:49:33.362Z,51.9
2023-05-05T12:50:34.535Z,51.7
2023-05-05T12:51:35.696Z,51.2
2023-05-05T12:52:36.863Z,50.9
2023-05-05T12:53:38.096Z,50.4
2023-05-05T12:54:39.231Z,50
2023-05-05T12:55:40.475Z,49.6
2023-05-05T12:56:41.748Z,49.3
2023-05-05T12:57:43.113Z,48.8
2023-05-05T12:58:46.889Z,48.4
2023-05-05T12:59:48.315Z,48
2023-05-05T13:00:49.753Z,47.6
2023-05-05T13:01:54.551Z,47.4
2023-05-05T13:02:56.164Z,47.1
2023-05-05T13:04:02.702Z,46.8
2023-05-05T13:05:07.026Z,46.6
2023-05-05T13:06:11.057Z,46.4
2023-05-05T13:07:30.255Z,46.1
2023-05-05T13:08:31.681Z,45.9
2023-05-05T13:09:32.813Z,45.6
2023-05-05T13:10:33.984Z,45.4
2023-05-05T13:11:35.233Z,45.1
2023-05-05T13:12:50.314Z,44.9
2023-05-05T13:13:57.466Z,44.7
2023-05-05T13:53:35.862Z,44.6
2023-05-05T13:54:37.404Z,43.4
2023-05-05T13:55:38.537Z,43.2
2023-05-05T13:56:39.712Z,43.1
2023-05-05T13:57:40.926Z,43
2023-05-05T13:58:42.133Z,42.9
2023-05-05T13:59:43.305Z,42.8
2023-05-05T14:00:44.548Z,42.6
2023-05-05T14:01:45.748Z,42.5
2023-05-05T14:02:46.966Z,42.3
2023-05-05T14:03:48.588Z,42.2
2023-05-05T14:04:49.782Z,42.2
2023-05-05T14:05:50.942Z,42.1
2023-05-05T14:06:52.148Z,42
2023-05-05T14:07:53.296Z,42
2023-05-05T14:08:54.610Z,41.9
2023-05-05T14:09:55.914Z,41.9
2023-05-05T14:10:57.086Z,41.8
2023-05-05T14:11:58.254Z,41.7
2023-05-05T14:12:59.550Z,41.5
2023-05-05T14:14:00.728Z,41.4
2023-05-05T14:15:01.903Z,41.3
2023-05-05T14:16:03.187Z,41.3
2023-05-05T14:17:04.472Z,41.2
2023-05-05T14:18:08.443Z,41.2
2023-05-05T14:19:09.633Z,41.1
2023-05-05T14:20:13.963Z,41
2023-05-05T14:21:15.099Z,41
2023-05-05T14:22:16.254Z,41
2023-05-05T14:23:17.465Z,40.9
2023-05-05T14:24:18.729Z,40.8
2023-05-05T14:25:20.185Z,40.7
2023-05-05T14:26:21.394Z,40.7
2023-05-05T14:27:22.530Z,40.6
2023-05-05T14:28:23.702Z,40.7
2023-05-05T14:29:24.877Z,40.7
2023-05-05T14:30:26.058Z,40.7
2023-05-05T14:31:27.330Z,40.8
2023-05-05T14:32:28.592Z,41
2023-05-05T14:33:29.802Z,41.1
2023-05-05T14:34:31.350Z,41.2
2023-05-05T14:35:32.502Z,41.3
2023-05-05T14:36:33.670Z,41.4
2023-05-05T14:37:34.838Z,41.4
2023-05-05T14:38:36.231Z,41.5
2023-05-05T14:39:37.549Z,41.6
2023-05-05T14:40:38.984Z,41.7
2023-05-05T14:41:40.152Z,41.8
2023-05-05T14:42:41.352Z,41.9
2023-05-05T14:43:42.483Z,42
2023-05-05T14:44:43.669Z,42
2023-05-05T14:45:44.888Z,42.1
2023-05-05T14:46:51.013Z,42.1
2023-05-05T14:47:52.297Z,42.1
2023-05-05T14:48:53.451Z,42.2
2023-05-05T14:49:54.615Z,42.2
2023-05-05T14:50:55.774Z,42.3
2023-05-05T14:51:57.703Z,42.4
2023-05-05T14:52:58.935Z,42.4
2023-05-05T14:54:00.117Z,42.5
2023-05-05T14:55:01.504Z,42.6
2023-05-05T14:56:03.109Z,42.7
2023-05-05T14:57:04.264Z,42.8
2023-05-05T14:58:05.426Z,42.9
2023-05-05T14:59:06.599Z,43
2023-05-05T15:00:07.772Z,43.1
2023-05-05T15:01:08.985Z,43.1
2023-05-05T15:02:10.125Z,43.2
2023-05-05T15:03:11.602Z,43.3
2023-05-05T15:04:12.818Z,43.4
2023-05-05T15:05:13.998Z,43.5
2023-05-05T15:06:15.153Z,43.6
2023-05-05T15:07:16.349Z,43.6
2023-05-05T15:08:17.487Z,43.7
2023-05-05T15:09:18.656Z,43.9
2023-05-05T15:10:22.712Z,44
2023-05-05T15:11:24.197Z,44
2023-05-05T15:12:25.366Z,44.1
2023-05-05T15:13:26.532Z,44.1
2023-05-05T15:14:27.733Z,44.2
2023-05-05T15:15:34.203Z,44.2
2023-05-05T15:16:36.337Z,44.3
2023-05-05T15:17:37.645Z,44.4
2023-05-05T15:18:38.913Z,44.4
2023-05-05T15:19:40.087Z,44.5
2023-05-05T15:20:41.241Z,44.6
2023-05-05T15:21:42.457Z,44.7
2023-05-05T15:22:43.686Z,44.9
2023-05-05T15:23:44.894Z,45
2023-05-05T15:24:49.082Z,45.2
2023-05-05T15:25:50.345Z,45.4
2023-05-05T15:26:51.707Z,45.5
2023-05-05T15:27:53.363Z,45.7
2023-05-05T15:28:54.554Z,45.9
2023-05-05T15:29:55.672Z,46.1
2023-05-05T15:30:56.836Z,46.3
2023-05-05T15:31:58.154Z,46.5
2023-05-05T15:32:59.486Z,46.6
2023-05-05T15:34:00.668Z,46.8
2023-05-05T15:35:01.994Z,46.9
2023-05-05T15:36:03.130Z,47.1
2023-05-05T15:37:04.309Z,47.3
2023-05-05T15:38:05.469Z,47.5
2023-05-05T15:39:06.656Z,47.6
2023-05-05T15:40:07.815Z,47.8
2023-05-05T15:41:09.082Z,47.9
2023-05-05T15:42:10.338Z,48.1
2023-05-05T15:43:11.501Z,48.3
2023-05-05T15:44:12.669Z,48.5
2023-05-05T15:45:13.833Z,48.6
2023-05-05T15:46:15.041Z,48.8
2023-05-05T15:47:16.481Z,49
2023-05-05T15:48:17.635Z,49.1
2023-05-05T15:49:18.799Z,49.2
2023-05-05T15:50:19.963Z,49.4
2023-05-05T15:51:21.133Z,49.5
2023-05-05T15:52:22.293Z,49.7
2023-05-05T15:53:23.480Z,49.8
2023-05-05T15:54:24.629Z,50
2023-05-05T15:55:25.797Z,50.1
2023-05-05T15:56:27.060Z,50.3
2023-05-05T15:57:28.597Z,50.4
2023-05-05T15:58:29.815Z,50.5
2023-05-05T15:59:30.951Z,50.6
2023-05-05T16:00:32.112Z,50.6
2023-05-05T16:01:33.322Z,50.7
2023-05-05T16:02:34.624Z,50.7
2023-05-05T16:03:35.989Z,50.8
2023-05-05T16:04:37.129Z,50.9
2023-05-05T16:05:38.293Z,50.9
2023-05-05T16:06:39.465Z,51
2023-05-05T16:07:40.745Z,51.1
2023-05-05T16:08:41.892Z,51.1
2023-05-05T16:09:43.060Z,51.3
2023-05-05T16:10:44.225Z,51.4
2023-05-05T16:11:45.766Z,51.5
2023-05-05T16:12:47.465Z,51.6
2023-05-05T16:13:48.620Z,51.7
2023-05-05T16:14:49.786Z,51.8
2023-05-05T16:15:50.952Z,51.9
2023-05-05T16:16:52.168Z,52
2023-05-05T16:17:53.396Z,52.1
2023-05-05T16:18:54.540Z,52.3
2023-05-05T16:19:55.705Z,52.3
2023-05-05T16:20:56.871Z,52.4
2023-05-05T16:21:58.039Z,52.5
2023-05-05T16:22:59.203Z,52.5
2023-05-05T16:24:05.640Z,52.5
2023-05-05T16:25:07.300Z,52.6
2023-05-05T16:26:08.811Z,52.6
2023-05-05T16:27:10.170Z,52.7
2023-05-05T16:28:11.646Z,52.7
2023-05-05T16:29:12.811Z,52.9
2023-05-05T16:30:13.985Z,53
2023-05-05T16:31:15.163Z,53.2
2023-05-05T16:32:19.231Z,53.3
2023-05-05T16:33:20.417Z,53.5
2023-05-05T16:34:21.560Z,53.6
2023-05-05T16:35:22.727Z,53.8
2023-05-05T16:36:23.890Z,53.9
2023-05-05T16:37:25.163Z,54.1
2023-05-05T16:38:26.289Z,54.3
2023-05-05T16:39:27.470Z,54.4
2023-05-05T16:40:28.618Z,54.6
2023-05-05T16:41:30.071Z,54.8
2023-05-05T16:42:31.512Z,54.9
2023-05-05T16:43:32.763Z,55.1
2023-05-05T16:44:33.927Z,55.2
2023-05-05T16:45:35.088Z,55.3
2023-05-05T16:46:36.368Z,55.5
2023-05-05T16:47:37.631Z,55.6
2023-05-05T16:48:38.999Z,55.8
2023-05-05T16:49:40.149Z,55.9
2023-05-05T16:50:41.315Z,56.1
2023-05-05T16:51:42.494Z,56.3
2023-05-05T16:52:43.646Z,56.4
2023-05-05T16:53:45.095Z,56.6
2023-05-05T16:54:46.816Z,56.7
2023-05-05T16:55:47.975Z,56.9
2023-05-05T16:56:49.228Z,57
2023-05-05T16:57:50.420Z,57.1
2023-05-05T16:58:51.730Z,57.2
2023-05-05T16:59:52.892Z,57.4
2023-05-05T17:00:54.066Z,57.5
2023-05-05T17:01:55.349Z,57.6
2023-05-05T17:02:56.608Z,57.7
2023-05-05T17:03:57.776Z,57.9